Monday, November 24, 2014
08:11 UTC
  |  Log In   |  Register Free
Airport Search:

Talladega Municipal Airport
(KASN)

Talladega Municipal Airport Diagram
No Airport Diagram Available

FAA data valid effective November 13, 2014 - January 08, 2015 (unless otherwise noted).

 
 
 
 
 
 
 
 
 
 
 
 
 
 

Current Aviation Weather for Talladega Municipal Airport (KASN)

The most recent METAR observation for KASN was updated at: 0808
METAR Summary (Translated METAR)
KASN
240755Z AUTO 22011KT 10SM BKN024 OVC030 18/15 A2972 RMK AO2 T01830151
KANB
240753Z AUTO 23006KT 10SM BKN025 16/13 A2972 RMK AO2 SLP064 T01610133 $
(9.7 nm NE from KASN)
KGAD
240655Z 20008KT 10SM OVC024 16/13 A2968 RMK AO1
(24.3 nm NW from KASN)
TAF Summary (Translated TAF)
KASN
(9.7 nm SW from KANB)
221726Z 2218/2318 02006KT P6SM SKC FM230000 00000KT P6SM SKC
KANB
240531Z 2406/2506 21007KT 4SM BR BKN025 OVC035 FM240800 21010KT 6SM BR OVC015 TEMPO 2410/2414 4SM BR OVC008 FM241900 25014KT P6SM SCT020 BKN100 FM242300 30006KT P6SM OVC250
  Airport Weather Conditions for KASN

 Current Weather at ASN
64° F
Mostly Cloudy
South winds at 13.8 mph
ASN NOAA Radar

Pressure: 29.70 in
Humidity: 83%
Wind: from the South at 13.8 gusting to 19.6 MPH (12 gusting to 17 KT)
Dew Point: 58.5°F
Visibility: 10.00 mi


Airport Weather Forecast for KASN

Translated METAR and TAF for KANB
Translated METAR for KANB (0806 UTC 24 November 2014)
found at http://aviationweather.gov/adds/metars/
 
METAR text: KANB 240753Z AUTO 23006KT 10SM BKN025 16/13 A2972 RMK AO2 SLP064 T01610133 $
Conditions at: KANB (ANNISTON , AL, US) observed 0753 UTC 24 November 2014
Temperature: 16.1°C (61°F)
Dewpoint: 13.3°C (56°F) [RH = 83%]
Pressure (altimeter): 29.72 inches Hg (1006.5 mb)
[Sea-level pressure: 1006.4 mb]
Winds: from the SW (230 degrees) at 7 MPH (6 knots; 3.1 m/s)
Visibility: 10 or more miles (16+ km)
Ceiling: 2500 feet AGL
Clouds: broken clouds at 2500 feet AGL
Weather:
SOME DATA ABOVE MAY BE INACCURATE!!!
"$" is an indication the sensor requires maintenance
Translated TAF for KANB
Forecast for: KANB (ANNISTON , AL, US)
TAF Text: KANB 240531Z 2406/2506 21007KT 4SM BR BKN025 OVC035
Forecast period: 0600 to 0800 UTC 24 November 2014
Forecast type: FROM: standard forecast or significant change
Winds: from the SSW (210 degrees) at 8 MPH (7 knots; 3.6 m/s)
Visibility: 4 miles (6 km)
Ceiling: 2500 feet AGL
Clouds: broken clouds at 2500 feet AGL
overcast cloud deck at 3500 feet AGL
Weather: BR  (mist)
TAF Text: FM240800 21010KT 6SM BR OVC015
Forecast period: 0800 to 1900 UTC 24 November 2014
Forecast type: FROM: standard forecast or significant change
Winds: from the SSW (210 degrees) at 12 MPH (10 knots; 5.2 m/s)
Visibility: 6 miles (10 km)
Ceiling: 1500 feet AGL
Clouds: overcast cloud deck at 1500 feet AGL
Weather: BR  (mist)
TAF Text: TEMPO 2410/2414 4SM BR OVC008
Forecast period: 1000 to 1400 UTC 24 November 2014
Forecast type: TEMPORARY: The following changes expected for less than half the time period
Visibility: 4 miles (6 km)
Ceiling: 800 feet AGL
Clouds: overcast cloud deck at 800 feet AGL
Weather: BR  (mist)
TAF Text: FM241900 25014KT P6SM SCT020 BKN100
Forecast period: 1900 to 2300 UTC 24 November 2014
Forecast type: FROM: standard forecast or significant change
Winds: from the WSW (250 degrees) at 16 MPH (14 knots; 7.3 m/s)
Visibility: 6 or more miles (10+ km)
Ceiling: 10000 feet AGL
Clouds: scattered clouds at 2000 feet AGL
broken clouds at 10000 feet AGL
Weather: no significant weather forecast for this period
TAF Text: FM242300 30006KT P6SM OVC250
Forecast period: 2300 UTC 24 November 2014 to 0600 UTC 25 November 2014
Forecast type: FROM: standard forecast or significant change
Winds: from the WNW (300 degrees) at 7 MPH (6 knots; 3.1 m/s)
Visibility: 6 or more miles (10+ km)
Ceiling: 25000 feet AGL
Clouds: overcast cloud deck at 25000 feet AGL
Weather: no significant weather forecast for this period

Find All Airport Services Find A Hotel Find A Rental Car Find A Golf Course Find A Restaurant $100 Hamburger



FBO's on the Field
FBO Company Facility Photos Services Transportation Aviation Fuel Prices: Prices include tax
Catering Weather Repair Courtesy Rental Type 100LL JetA JetA+ MOGAS 8087
 
Talladega Municipal

This FBO has not yet been rated
FS:Phillips 66
Last Updated: Nov-14
Login to update fuel prices
SS:
Contact Talladega MunicipalMore FBO Information
 
Add another FBO Facility Photos Catering Weather Repair Courtesy Rental Type 100LL JetA JetA+ MOGAS 8087
Services Transportation Aviation Fuel Prices: Prices include tax


model-print
model-print
model-print
model-print